Terminal Aerodrome Forecast
Issued by NWS Corpus Christi, TX

Home | Current Version | Previous Version | Text Only | Print | Product List | Glossary On
Versions: 1 2 3 4 5 6 7 8 9 10 11 12 13 14 15 16 17 18 19 20 21 22 23 24 25 26
000
FTUS44 KCRP 220400 AAA
TAFVCT
TAF AMD
KVCT 220400Z 2204/2224 33015G20KT P6SM SCT150
     FM220600 26016G23KT P6SM SKC WS015/31050KT
     FM221400 27020G34KT P6SM SKC
     FM221700 30026G37KT P6SM SKC
     FM222300 31012KT P6SM SKC=

USA.gov is the U.S. government's official web portal to all federal, state and local government web resources and services.